This is the latest recevied weather packets stored in our database for station/object N0NB. If no packets are shown the sender has not sent any weather packets the latest 1 day(s).
| Time | Temp. | Humidity | Pressure | Rain* | Wind** | Luminosity | Snow |
|---|---|---|---|---|---|---|---|
| 1777996215 | 10° C | 77% | 1011.6 hPa | 0 mm | 0.45 m/s, 338° | 138 W/m² | - |
| 1777995616 | 9.44° C | 79% | 1011.5 hPa | 0 mm | 0.45 m/s, 338° | 144 W/m² | - |
| 1777995016 | 9.44° C | 80% | 1011.5 hPa | 0 mm | 0.45 m/s, 338° | 156 W/m² | - |
| 1777993215 | 8.89° C | 86% | 1011.4 hPa | 0 mm | 0.45 m/s, 338° | 205 W/m² | - |
| 1777992615 | 8.89° C | 87% | 1011.5 hPa | 0 mm | 0.45 m/s, 0° | 198 W/m² | - |
| 1777989015 | 7.78° C | 88% | 1011.3 hPa | 0 mm | 0.45 m/s, 0° | 41 W/m² | - |
| 1777988417 | 7.78° C | 89% | 1011.3 hPa | 0 mm | 1.34 m/s, 315° | 35 W/m² | - |
| 1777987817 | 7.78° C | 89% | 1010.9 hPa | 0 mm | 0.89 m/s, 68° | 29 W/m² | - |
| 1777987217 | 7.78° C | 89% | 1010.1 hPa | 0 mm | 0.89 m/s, 90° | 32 W/m² | - |
| 1777986017 | 7.78° C | 88% | 1010.1 hPa | 0 mm | 0.89 m/s, 68° | 27 W/m² | - |
| 1777985417 | 7.22° C | 88% | 1010 hPa | 0.25 mm | 0.45 m/s, 113° | 15 W/m² | - |
| 1777984217 | 7.22° C | 88% | 1010.3 hPa | 1.02 mm | 0.45 m/s, 270° | 13 W/m² | - |
| 1777983617 | 7.22° C | 87% | 1010.2 hPa | 1.27 mm | 0.45 m/s, 270° | 9 W/m² | - |
| 1777983017 | 7.22° C | 86% | 1010 hPa | 1.52 mm | 0.45 m/s, 113° | 6 W/m² | - |
| 1777982417 | 7.22° C | 87% | 1009.8 hPa | 1.52 mm | 1.34 m/s, 113° | 0 W/m² | - |
| 1777981817 | 7.78° C | 86% | 1009.7 hPa | 1.27 mm | 1.34 m/s, 113° | 0 W/m² | - |
| 1777981217 | 7.78° C | 85% | 1009.4 hPa | 1.27 mm | 0.89 m/s, 90° | 0 W/m² | - |
| 1777978817 | 8.33° C | 78% | 1009.1 hPa | 0.25 mm | 0.45 m/s, 0° | 0 W/m² | - |
| 1777978217 | 8.89° C | 76% | 1008.8 hPa | 0 mm | 0.45 m/s, 68° | 0 W/m² | - |
| 1777977617 | 8.89° C | 73% | 1008.7 hPa | 0 mm | 0.89 m/s, 68° | 0 W/m² | - |
| 1777977017 | 9.44° C | 72% | 1008.8 hPa | 0 mm | 0.89 m/s, 68° | 0 W/m² | - |
| 1777976417 | 9.44° C | 70% | 1008.8 hPa | 0 mm | 0.89 m/s, 68° | 0 W/m² | - |
| 1777975817 | 9.44° C | 69% | 1008.8 hPa | 0 mm | 1.79 m/s, 68° | 0 W/m² | - |
| 1777975217 | 9.44° C | 70% | 1008.8 hPa | 0 mm | 1.79 m/s, 68° | 0 W/m² | - |
| 1777974617 | 9.44° C | 69% | 1008.7 hPa | 0 mm | 1.79 m/s, 68° | 0 W/m² | - |
* Rain latest hour (hover to see other rain measurements)
** Current wind speed in m/s (hover to see current wind gust speed)